Coleville, Canada
Current Conditions -  °F | °C
As of 3:00 PM on Thursday 20 Nov 2014 (Local Time) from CYKY Reporting Station
Broken Clouds Broken Clouds  
Wind Chill: 17°   Ceiling: 23000
Heat Index: 28°   Visibility: 15mi
Dew Point: 23°   Wind: 14mph
Humidity: 80%   Direction: 220°SW
Pressure: 29.67"   Gusts: NA
Location:  51.7°N, 109.23°W
Report Text: CYKY 202100Z 22012KT 15SM FEW040 BKN230 M02/M05 A2967 RMK SC2CI4 CONTRAILS SLP083
Loading
Personal Weather Stations






























Interactive Weather Map New forecast layout! Learn more

10-Day Weather Forecast

Advertisements
Track Severe Weather on mobile